Ship Status Report: callsign C6VC2

sailwx.info

Track history (hours):
 
Tides and Currents Weather Stations Pressure Air Temp Water Temp Dewpoint Dewpoint Depression Visibility Wind Speed Wind Dir Waves Ship Positions

Callsign C6VC2 (name unknown)

Last reported at 2013-Dec-26 02:14 UTC. Time now 2014-Sep-17 13:40 UTC.
Position N 50°16' W 001°17'.
Warning: this ship's position is months out of date.

Date/timePositionNaut miles runAvg speedWind from/ knotsBaromVisibWave heightAir tempDewpointWater temp
2013-Dec-26 02:14N 50°16' W 001°17'7 9.7
2013-Dec-26 01:33N 50°18' W 001°08'12 9.8
2013-Dec-26 00:23N 50°21' W 000°50'1110.7
2013-Dec-25 23:20N 50°24' W 000°33'4712.4
2013-Dec-25 19:34N 50°36' E 000°38'1212.1
2013-Dec-25 18:33N 50°44' E 000°53'2410.6
2013-Dec-25 16:18N 50°59' E 001°23'9 9.7
2013-Dec-25 15:22N 51°05' E 001°33'810.3
2013-Dec-25 14:33N 51°11' E 001°43'1211.6
2013-Dec-25 13:32N 51°21' E 001°53'1312.7
2013-Dec-25 12:32N 51°31' E 002°05'1212.4
2013-Dec-25 11:32N 51°41' E 002°17'1211.8
2013-Dec-25 10:33N 51°50' E 002°29'350 7.8
2013-Dec-23 13:32N 56°48' E 007°43'17 8.1
2013-Dec-23 11:29N 57°02' E 007°58'17 7.4
2013-Dec-23 09:09N 57°15' E 008°20'5 7.0
2013-Dec-23 08:22N 57°20' E 008°24'7 7.6
2013-Dec-23 07:27N 57°25' E 008°32'49 8.3
2013-Dec-23 01:33N 57°48' E 009°53'9 9.1
2013-Dec-23 00:33N 57°47' E 010°10'9 9.2
2013-Dec-22 23:33N 57°47' E 010°27'9 9.3
2013-Dec-22 22:33N 57°47' E 010°45'1110.7
2013-Dec-22 21:33N 57°37' E 010°53'1212.2
2013-Dec-22 20:33N 57°32' E 011°13'1212.0
2013-Dec-22 19:33N 57°23' E 011°29'1212.3
2013-Dec-22 18:33N 57°12' E 011°37'1212.3
2013-Dec-22 17:33N 57°00' E 011°44'1312.3
2013-Dec-22 16:28N 56°47' E 011°52'13410.4
2013-Dec-22 03:33N 54°36' E 011°04'1211.7
2013-Dec-22 02:33N 54°33' E 011°23'1211.8
2013-Dec-22 01:33N 54°28' E 011°42'1211.6
2013-Dec-22 00:33N 54°26' E 012°02'12 9.8
2013-Dec-21 23:21N 54°34' E 012°15'1011.1
2013-Dec-21 22:28N 54°41' E 012°28'4511.4
2013-Dec-21 18:33N 54°59' E 013°39'1211.6
2013-Dec-21 17:33N 55°03' E 013°58'1111.1
2013-Dec-21 16:33N 55°08' E 014°16'1110.7
2013-Dec-21 15:33N 55°13' E 014°32'1010.3
2013-Dec-21 14:33N 55°20' E 014°46'8 7.5
2013-Dec-21 13:33N 55°21' E 014°59'1110.9
2013-Dec-21 12:33N 55°28' E 015°14'1110.6
2013-Dec-21 11:33N 55°34' E 015°30'34810.9
2013-Dec-20 03:33N 59°37' E 023°15'1111.5
2013-Dec-20 02:33N 59°40' E 023°37'1211.8
2013-Dec-20 01:33N 59°43' E 023°60'1211.9
2013-Dec-20 00:33N 59°45' E 024°23'1212.0
2013-Dec-19 23:33N 59°45' E 024°47'16 0.3
2013-Dec-18 00:28N 59°30' E 024°57'0 0.0
2013-Dec-17 03:14N 59°30' E 024°57'2 2.3
2013-Dec-17 02:32N 59°31' E 024°57'7 7.6
2013-Dec-17 01:33N 59°37' E 024°48'1211.7
2013-Dec-17 00:33N 59°35' E 024°25'7 7.1
2013-Dec-16 23:34N 59°29' E 024°33'0 0.1
2013-Dec-16 22:32N 59°29' E 024°33'0 0.1
2013-Dec-16 21:29N 59°29' E 024°33'0 0.0
2013-Dec-16 20:29N 59°29' E 024°33'0 0.0
2013-Dec-16 19:32N 59°29' E 024°33'0 0.0
2013-Dec-16 18:32N 59°29' E 024°33'0 0.3
2013-Dec-16 17:33N 59°29' E 024°32'2512.0
2013-Dec-16 15:28N 59°28' E 023°43'1414.9
2013-Dec-16 14:33N 59°27' E 023°16'  
Track history (hours):
 
Tides and Currents Weather Stations Pressure Air Temp Water Temp Dewpoint Dewpoint Depression Visibility Wind Speed Wind Dir Waves Ship Positions

Callsign C6VC2 (name unknown)

Last reported at 2013-Dec-26 02:14 UTC. Time now 2014-Sep-17 13:40 UTC.
Position N 50°16' W 001°17'.
Warning: this ship's position is months out of date.

Date/timePositionNaut miles runAvg speedWind from/ knotsBaromVisibWave heightAir tempDewpointWater temp
2013-Dec-26 02:14N 50°16' W 001°17'7 9.7
2013-Dec-26 01:33N 50°18' W 001°08'12 9.8
2013-Dec-26 00:23N 50°21' W 000°50'1110.7
2013-Dec-25 23:20N 50°24' W 000°33'4712.4
2013-Dec-25 19:34N 50°36' E 000°38'1212.1
2013-Dec-25 18:33N 50°44' E 000°53'2410.6
2013-Dec-25 16:18N 50°59' E 001°23'9 9.7
2013-Dec-25 15:22N 51°05' E 001°33'810.3
2013-Dec-25 14:33N 51°11' E 001°43'1211.6
2013-Dec-25 13:32N 51°21' E 001°53'1312.7
2013-Dec-25 12:32N 51°31' E 002°05'1212.4
2013-Dec-25 11:32N 51°41' E 002°17'1211.8
2013-Dec-25 10:33N 51°50' E 002°29'350 7.8
2013-Dec-23 13:32N 56°48' E 007°43'17 8.1
2013-Dec-23 11:29N 57°02' E 007°58'17 7.4
2013-Dec-23 09:09N 57°15' E 008°20'5 7.0
2013-Dec-23 08:22N 57°20' E 008°24'7 7.6
2013-Dec-23 07:27N 57°25' E 008°32'49 8.3
2013-Dec-23 01:33N 57°48' E 009°53'9 9.1
2013-Dec-23 00:33N 57°47' E 010°10'9 9.2
2013-Dec-22 23:33N 57°47' E 010°27'9 9.3
2013-Dec-22 22:33N 57°47' E 010°45'1110.7
2013-Dec-22 21:33N 57°37' E 010°53'1212.2
2013-Dec-22 20:33N 57°32' E 011°13'1212.0
2013-Dec-22 19:33N 57°23' E 011°29'1212.3
2013-Dec-22 18:33N 57°12' E 011°37'1212.3
2013-Dec-22 17:33N 57°00' E 011°44'1312.3
2013-Dec-22 16:28N 56°47' E 011°52'13410.4
2013-Dec-22 03:33N 54°36' E 011°04'1211.7
2013-Dec-22 02:33N 54°33' E 011°23'1211.8
2013-Dec-22 01:33N 54°28' E 011°42'1211.6
2013-Dec-22 00:33N 54°26' E 012°02'12 9.8
2013-Dec-21 23:21N 54°34' E 012°15'1011.1
2013-Dec-21 22:28N 54°41' E 012°28'4511.4
2013-Dec-21 18:33N 54°59' E 013°39'1211.6
2013-Dec-21 17:33N 55°03' E 013°58'1111.1
2013-Dec-21 16:33N 55°08' E 014°16'1110.7
2013-Dec-21 15:33N 55°13' E 014°32'1010.3
2013-Dec-21 14:33N 55°20' E 014°46'8 7.5
2013-Dec-21 13:33N 55°21' E 014°59'1110.9
2013-Dec-21 12:33N 55°28' E 015°14'1110.6
2013-Dec-21 11:33N 55°34' E 015°30'34810.9
2013-Dec-20 03:33N 59°37' E 023°15'1111.5
2013-Dec-20 02:33N 59°40' E 023°37'1211.8
2013-Dec-20 01:33N 59°43' E 023°60'1211.9
2013-Dec-20 00:33N 59°45' E 024°23'1212.0
2013-Dec-19 23:33N 59°45' E 024°47'16 0.3
2013-Dec-18 00:28N 59°30' E 024°57'0 0.0
2013-Dec-17 03:14N 59°30' E 024°57'2 2.3
2013-Dec-17 02:32N 59°31' E 024°57'7 7.6
2013-Dec-17 01:33N 59°37' E 024°48'1211.7
2013-Dec-17 00:33N 59°35' E 024°25'7 7.1
2013-Dec-16 23:34N 59°29' E 024°33'0 0.1
2013-Dec-16 22:32N 59°29' E 024°33'0 0.1
2013-Dec-16 21:29N 59°29' E 024°33'0 0.0
2013-Dec-16 20:29N 59°29' E 024°33'0 0.0
2013-Dec-16 19:32N 59°29' E 024°33'0 0.0
2013-Dec-16 18:32N 59°29' E 024°33'0 0.3
2013-Dec-16 17:33N 59°29' E 024°32'2512.0
2013-Dec-16 15:28N 59°28' E 023°43'1414.9
2013-Dec-16 14:33N 59°27' E 023°16'  

Dump ship's entire track history